Time;durP1;ratioP1;P1;durP2;ratioP2;P2;SDS_P1;SDS_P2;PMS_P1;PMS_P2;Temp;Humidity;BMP_temperature;BMP_pressure;BME280_temperature;BME280_humidity;BME280_pressure;Samples;Min_cycle;Max_cycle;Signal;HPM_P1;HPM_P2
2021/03/21 00:00:41;;;;;;;10.95;8.65;;;;;;;7.07;66.45;99641.75;5116005;28;20035;-80
2021/03/21 00:03:07;;;;;;;14.32;9.88;;;;;;;7.13;66.72;99649.84;5115806;28;20075;-80
2021/03/21 00:05:33;;;;;;;11.27;8.43;;;;;;;7.19;66.08;99651.84;5097524;28;20027;-77
2021/03/21 00:08:05;;;;;;;11.38;8.57;;;;;;;7.13;66.54;99647.22;5097645;28;20042;-78
2021/03/21 00:10:31;;;;;;;12.05;9.00;;;;;;;7.00;66.38;99631.03;5115726;28;20038;-77
2021/03/21 00:12:57;;;;;;;12.43;8.40;;;;;;;7.12;66.08;99658.69;5115736;28;20452;-77
2021/03/21 00:15:23;;;;;;;8.45;7.35;;;;;;;7.14;65.59;99656.75;5115588;28;20027;-78
2021/03/21 00:17:49;;;;;;;9.23;7.18;;;;;;;7.09;65.62;99653.75;5115581;28;20103;-78
2021/03/21 00:20:17;;;;;;;9.15;8.00;;;;;;;6.94;66.20;99619.34;5115475;28;20092;-81
2021/03/21 00:22:43;;;;;;;11.25;7.60;;;;;;;6.59;65.86;99553.78;5115501;28;20023;-78
2021/03/21 00:25:15;;;;;;;9.18;7.38;;;;;;;6.80;65.74;99587.59;5115853;28;20345;-81
2021/03/21 00:27:41;;;;;;;10.38;7.82;;;;;;;7.01;65.90;99628.25;5115551;28;20024;-80
2021/03/21 00:30:10;;;;;;;9.18;7.70;;;;;;;7.02;66.36;99639.59;5115570;28;20433;-79
2021/03/21 00:32:36;;;;;;;10.70;8.13;;;;;;;6.59;66.22;99559.03;5097356;28;20155;-78
2021/03/21 00:35:03;;;;;;;10.10;7.97;;;;;;;6.44;65.96;99529.91;5115568;28;20048;-82
2021/03/21 00:37:28;;;;;;;9.57;7.65;;;;;;;6.17;66.05;99486.25;5115199;28;20027;-82
2021/03/21 00:39:54;;;;;;;10.27;8.20;;;;;;;6.36;66.04;99506.25;5115447;28;20027;-79
2021/03/21 00:42:19;;;;;;;10.68;8.88;;;;;;;6.40;66.32;99512.00;5115602;28;20588;-80
2021/03/21 00:44:45;;;;;;;10.05;8.55;;;;;;;6.71;66.10;99568.34;5115277;28;20487;-79
2021/03/21 00:47:10;;;;;;;8.93;7.55;;;;;;;6.47;66.68;99519.09;5115609;28;20042;-82
2021/03/21 00:49:35;;;;;;;11.05;8.63;;;;;;;6.87;66.86;99565.00;5119626;28;20023;-78
2021/03/21 00:52:01;;;;;;;9.30;8.02;;;;;;;6.34;66.49;99471.47;5119547;28;20031;-82
2021/03/21 00:54:26;;;;;;;10.45;9.02;;;;;;;6.91;66.12;99566.34;5122483;28;20024;-78
2021/03/21 00:56:53;;;;;;;11.63;9.23;;;;;;;6.30;66.17;99485.88;5125753;28;20106;-80
2021/03/21 00:59:18;;;;;;;10.90;8.88;;;;;;;6.62;66.82;99562.19;5120017;28;20031;-80
2021/03/21 01:01:44;;;;;;;10.90;8.52;;;;;;;6.44;66.11;99531.69;5119345;28;20085;-79
2021/03/21 01:04:09;;;;;;;11.38;9.07;;;;;;;6.75;66.35;99595.91;5119490;28;20062;-81
2021/03/21 01:06:35;;;;;;;10.40;8.57;;;;;;;6.79;66.01;99601.69;5119222;28;20019;-79
2021/03/21 01:09:04;;;;;;;12.55;9.50;;;;;;;6.49;66.31;99564.38;5101226;28;20038;-81
2021/03/21 01:11:34;;;;;;;11.57;9.00;;;;;;;6.70;66.35;99587.69;5119522;28;20059;-79
2021/03/21 01:14:01;;;;;;;12.00;8.67;;;;;;;6.45;65.78;99556.94;5119604;28;20114;-82
2021/03/21 01:16:32;;;;;;;11.18;8.63;;;;;;;6.74;65.66;99607.41;5119103;28;20031;-77
2021/03/21 01:18:59;;;;;;;9.10;8.05;;;;;;;6.71;65.90;99602.44;5119079;28;20023;-81
2021/03/21 01:21:29;;;;;;;10.23;8.40;;;;;;;6.68;66.08;99590.44;5100883;28;20067;-79
2021/03/21 01:23:55;;;;;;;10.57;8.63;;;;;;;6.61;65.60;99578.06;5119027;28;20432;-78
2021/03/21 01:26:23;;;;;;;10.27;8.53;;;;;;;6.56;65.51;99572.44;5100856;28;20106;-78
2021/03/21 01:28:49;;;;;;;11.20;8.30;;;;;;;6.66;65.46;99592.38;5118696;28;20034;-81
2021/03/21 01:31:17;;;;;;;9.47;8.13;;;;;;;6.49;65.24;99567.00;5100733;28;20091;-82
2021/03/21 01:33:43;;;;;;;11.52;9.35;;;;;;;6.58;65.57;99617.72;5118565;28;20502;-80
2021/03/21 01:36:13;;;;;;;12.37;9.03;;;;;;;6.57;65.88;99574.94;5118546;28;20102;-79
2021/03/21 01:38:38;;;;;;;12.40;9.07;;;;;;;5.78;65.68;99462.09;5118748;28;20019;-81
2021/03/21 01:41:06;;;;;;;11.60;8.93;;;;;;;6.50;65.74;99580.94;5118835;28;20027;-83
2021/03/21 01:43:35;;;;;;;11.67;9.00;;;;;;;6.30;65.48;99556.66;5118456;28;20059;-77
2021/03/21 01:46:01;;;;;;;12.10;9.07;;;;;;;6.08;65.72;99517.78;5100215;28;20031;-77
2021/03/21 01:48:49;;;;;;;11.90;9.60;;;;;;;6.52;65.75;99582.44;5100172;28;20084;-76
2021/03/21 01:51:22;;;;;;;11.73;9.40;;;;;;;6.56;65.69;99589.00;5118182;28;20027;-75
2021/03/21 01:53:53;;;;;;;11.97;9.27;;;;;;;6.60;65.82;99607.91;5118268;28;20319;-77
2021/03/21 01:56:19;;;;;;;13.07;9.27;;;;;;;6.60;65.74;99611.34;5118115;28;20408;-78
2021/03/21 01:58:47;;;;;;;11.07;8.97;;;;;;;6.63;65.67;99587.44;5117776;28;20107;-76
2021/03/21 02:01:24;;;;;;;12.33;9.87;;;;;;;6.61;65.72;99592.00;5118173;28;20081;-78
2021/03/21 02:03:50;;;;;;;11.90;9.70;;;;;;;6.25;66.07;99551.88;5101577;28;20119;-79
2021/03/21 02:06:37;;;;;;;13.20;10.07;;;;;;;6.55;65.74;99576.88;5118096;28;20481;-79
2021/03/21 02:09:05;;;;;;;11.30;9.20;;;;;;;6.52;65.87;99574.56;5118082;28;20035;-79
2021/03/21 02:11:52;;;;;;;12.40;9.45;;;;;;;5.97;65.66;99501.31;5099790;28;20398;-78
2021/03/21 02:14:42;;;;;;;14.33;9.80;;;;;;;6.46;65.99;99608.44;5117984;28;20028;-81
2021/03/21 02:17:14;;;;;;;12.60;10.33;;;;;;;6.49;66.19;99597.63;5105495;22;20043;-79
2021/03/21 02:20:03;;;;;;;11.50;9.80;;;;;;;6.48;66.44;99588.13;5117865;28;20341;-81
2021/03/21 02:22:32;;;;;;;13.37;10.33;;;;;;;6.35;66.12;99544.75;5117785;28;20055;-79
2021/03/21 02:25:36;;;;;;;13.23;10.27;;;;;;;6.48;66.65;99581.09;5099624;28;20019;-78
2021/03/21 02:28:31;;;;;;;13.43;10.03;;;;;;;6.42;66.32;99604.47;5117643;28;20020;-80
2021/03/21 02:31:02;;;;;;;14.93;10.80;;;;;;;6.34;66.21;99579.00;5124331;28;20144;-80
2021/03/21 02:33:58;;;;;;;16.10;11.40;;;;;;;5.85;66.37;99506.88;5117819;28;20115;-79
2021/03/21 02:36:30;;;;;;;13.60;10.03;;;;;;;6.11;66.25;99564.69;5097945;28;20028;-77
2021/03/21 02:39:11;;;;;;;13.27;10.52;;;;;;;5.99;66.24;99554.41;5099283;28;20031;-81
2021/03/21 02:41:48;;;;;;;13.27;11.07;;;;;;;6.45;66.60;99604.97;5117483;28;20023;-78
2021/03/21 02:44:25;;;;;;;14.83;11.13;;;;;;;6.41;66.73;99601.00;5117650;28;20709;-79
2021/03/21 02:46:56;;;;;;;16.48;12.23;;;;;;;6.48;66.19;99596.81;5099248;28;20465;-79
2021/03/21 02:49:28;;;;;;;13.33;10.53;;;;;;;6.37;66.58;99569.03;5117435;28;20051;-81
2021/03/21 02:52:02;;;;;;;14.75;10.85;;;;;;;6.40;66.45;99564.44;5098930;28;20081;-80
2021/03/21 02:54:27;;;;;;;14.17;11.60;;;;;;;6.51;66.92;99609.63;5099214;28;20127;-79
2021/03/21 02:57:00;;;;;;;16.33;11.60;;;;;;;6.51;66.44;99616.69;5116943;28;20408;-81
2021/03/21 02:59:31;;;;;;;13.30;10.43;;;;;;;6.50;66.53;99613.22;5098996;28;20058;-80
2021/03/21 03:02:02;;;;;;;14.80;10.68;;;;;;;6.51;66.58;99608.81;5099032;28;20394;-81
2021/03/21 03:04:40;;;;;;;12.95;10.43;;;;;;;6.50;66.52;99609.78;5098881;28;20115;-80
2021/03/21 03:07:10;;;;;;;14.07;10.32;;;;;;;6.53;66.95;99602.44;5117018;28;20024;-79
2021/03/21 03:09:48;;;;;;;12.48;10.27;;;;;;;6.53;66.49;99602.44;5116527;28;20445;-79
2021/03/21 03:12:20;;;;;;;13.03;10.67;;;;;;;6.54;66.74;99595.38;5098460;28;20348;-80
2021/03/21 03:14:47;;;;;;;15.65;11.48;;;;;;;6.03;66.94;99531.34;5116624;28;20035;-80
2021/03/21 03:17:25;;;;;;;12.43;9.80;;;;;;;6.50;66.43;99594.88;5116583;28;20036;-82
2021/03/21 03:20:09;;;;;;;12.40;9.68;;;;;;;6.49;66.54;99598.47;5116551;28;20062;-83
2021/03/21 03:22:55;;;;;;;14.40;10.70;;;;;;;6.13;66.82;99539.97;5116609;28;20038;-81
2021/03/21 03:25:43;;;;;;;13.80;9.80;;;;;;;6.48;66.41;99570.59;5115443;28;20034;-83
2021/03/21 03:28:17;;;;;;;11.97;9.10;;;;;;;6.47;66.50;99586.47;5098455;28;20422;-81
2021/03/21 03:31:08;;;;;;;12.37;9.20;;;;;;;6.43;66.63;99591.19;5098323;28;20024;-83
2021/03/21 03:33:35;;;;;;;13.40;10.03;;;;;;;6.22;66.54;99572.31;5116260;28;20020;-80
2021/03/21 03:36:03;;;;;;;11.17;9.30;;;;;;;6.44;66.45;99598.09;5123601;28;20031;-78
2021/03/21 03:38:28;;;;;;;11.50;9.13;;;;;;;6.46;66.56;99598.75;5122673;28;20088;-81
2021/03/21 03:40:58;;;;;;;14.53;10.53;;;;;;;6.33;66.47;99587.81;5116264;28;20027;-81
2021/03/21 03:43:48;;;;;;;10.83;8.90;;;;;;;6.42;66.42;99621.03;5098244;28;20023;-82
2021/03/21 03:46:20;;;;;;;11.07;8.83;;;;;;;5.82;65.95;99539.44;5116170;28;20395;-82
2021/03/21 03:49:01;;;;;;;11.65;9.25;;;;;;;6.37;66.75;99602.28;5116041;28;20072;-82
2021/03/21 03:51:52;;;;;;;12.77;9.30;;;;;;;6.10;66.74;99539.44;5116030;28;20028;-79
2021/03/21 03:54:47;;;;;;;10.90;8.83;;;;;;;6.17;66.50;99559.66;5116106;28;20058;-81
2021/03/21 03:57:20;;;;;;;11.80;9.25;;;;;;;6.42;66.33;99593.97;5115978;28;20059;-82
2021/03/21 03:59:46;;;;;;;12.27;8.65;;;;;;;6.42;66.72;99586.09;5097971;28;20109;-83
2021/03/21 04:02:22;;;;;;;10.67;8.70;;;;;;;6.02;66.53;99550.66;5097814;28;20036;-81
2021/03/21 04:05:06;;;;;;;10.80;9.18;;;;;;;6.40;66.43;99590.69;5097639;28;20045;-78
2021/03/21 04:08:01;;;;;;;13.68;9.75;;;;;;;6.19;66.57;99546.41;5115956;28;20031;-81
2021/03/21 04:11:01;;;;;;;12.77;9.80;;;;;;;6.32;66.25;99567.81;5115783;28;20076;-82
2021/03/21 04:13:47;;;;;;;12.70;9.23;;;;;;;6.31;66.28;99580.13;5071915;28;20039;-83
2021/03/21 04:16:24;;;;;;;13.77;9.90;;;;;;;5.93;66.26;99522.69;5115716;28;20039;-80
2021/03/21 04:19:08;;;;;;;11.63;9.27;;;;;;;6.22;66.54;99573.16;5115677;28;20028;-76
2021/03/21 04:21:52;;;;;;;13.00;10.63;;;;;;;5.87;66.57;99539.00;5097241;28;20041;-75
2021/03/21 04:24:27;;;;;;;12.13;9.87;;;;;;;5.86;66.67;99542.56;5115561;28;20169;-79
2021/03/21 04:27:01;;;;;;;10.93;9.37;;;;;;;6.30;66.61;99620.41;5097352;28;20334;-76
2021/03/21 04:29:35;;;;;;;11.97;9.47;;;;;;;6.13;66.58;99584.53;5115529;28;20474;-75
2021/03/21 04:32:09;;;;;;;13.70;9.43;;;;;;;6.11;66.86;99591.72;5097314;28;20106;-76
2021/03/21 04:34:39;;;;;;;13.83;10.63;;;;;;;6.02;66.47;99572.47;5115146;28;20031;-79
2021/03/21 04:37:06;;;;;;;14.90;10.83;;;;;;;6.38;66.69;99630.97;5114077;28;20418;-79
2021/03/21 04:39:35;;;;;;;14.80;11.07;;;;;;;6.09;66.45;99596.28;5115461;28;20081;-76
2021/03/21 04:42:21;;;;;;;14.33;10.00;;;;;;;6.38;66.60;99646.72;5116240;28;20030;-77
2021/03/21 04:45:02;;;;;;;11.95;10.50;;;;;;;6.40;66.76;99640.50;5117272;28;20055;-80
2021/03/21 04:47:33;;;;;;;13.53;10.37;;;;;;;6.18;66.51;99612.91;5115608;28;20437;-78
2021/03/21 04:50:00;;;;;;;13.88;10.38;;;;;;;5.91;66.73;99548.22;5115194;28;20058;-76
2021/03/21 04:52:47;;;;;;;13.80;10.70;;;;;;;6.43;66.38;99629.72;5097204;28;20023;-79
2021/03/21 04:55:23;;;;;;;14.97;11.33;;;;;;;6.41;66.89;99619.38;5097130;28;20036;-77
2021/03/21 04:57:49;;;;;;;16.40;12.33;;;;;;;6.41;66.55;99619.38;5114973;28;20036;-79
2021/03/21 05:00:31;;;;;;;17.37;12.10;;;;;;;6.39;66.78;99608.22;5115244;28;20027;-79
2021/03/21 05:03:03;;;;;;;15.27;12.33;;;;;;;6.41;67.00;99602.81;5097112;28;20055;-80
2021/03/21 05:05:33;;;;;;;15.47;12.13;;;;;;;6.02;66.76;99551.50;5115294;28;20268;-75
2021/03/21 05:08:12;;;;;;;15.53;12.93;;;;;;;6.28;67.29;99598.75;5114784;28;20047;-80
2021/03/21 05:10:45;;;;;;;16.20;12.23;;;;;;;6.36;67.34;99626.88;5115018;28;20031;-77
2021/03/21 05:13:19;;;;;;;16.87;12.07;;;;;;;6.34;67.36;99613.91;5114978;28;20020;-77
2021/03/21 05:15:58;;;;;;;13.03;10.40;;;;;;;5.58;67.05;99473.69;5114708;28;20055;-80
2021/03/21 05:18:32;;;;;;;14.33;11.70;;;;;;;6.39;67.24;99608.22;5114948;28;20034;-79
2021/03/21 05:21:13;;;;;;;13.20;10.47;;;;;;;6.41;67.27;99600.19;5114798;28;20027;-82
2021/03/21 05:24:11;;;;;;;11.57;9.10;;;;;;;6.37;67.46;99603.13;5096706;28;20083;-78
2021/03/21 05:26:48;;;;;;;13.67;10.03;;;;;;;6.39;66.88;99600.34;5120585;22;20044;-78
2021/03/21 05:29:50;;;;;;;10.57;8.50;;;;;;;5.65;67.65;99495.69;5114865;28;20081;-79
2021/03/21 05:32:19;;;;;;;10.70;8.87;;;;;;;6.38;67.29;99610.00;5096712;28;20030;-78
2021/03/21 05:34:48;;;;;;;9.27;7.83;;;;;;;5.96;67.16;99528.50;5099259;28;20022;-78
2021/03/21 05:37:44;;;;;;;9.77;8.03;;;;;;;6.41;67.48;99608.06;5118575;28;20027;-78
2021/03/21 05:40:09;;;;;;;9.73;8.30;;;;;;;6.29;67.60;99602.22;5100417;28;20027;-81
2021/03/21 05:43:10;;;;;;;11.03;9.03;;;;;;;6.29;68.01;99617.94;5118621;28;20042;-80
2021/03/21 05:46:17;;;;;;;9.97;8.30;;;;;;;5.99;66.92;99564.91;5100325;28;20039;-78
2021/03/21 05:48:57;;;;;;;11.63;8.20;;;;;;;6.29;67.26;99617.94;5120540;28;20027;-81
2021/03/21 05:51:54;;;;;;;9.53;7.90;;;;;;;6.30;67.33;99616.97;5107800;28;20032;-79
2021/03/21 05:54:35;;;;;;;8.43;7.30;;;;;;;6.31;67.11;99629.94;5100303;28;20044;-80
2021/03/21 05:57:25;;;;;;;12.30;8.30;;;;;;;6.27;66.96;99620.72;5118095;28;20110;-78
2021/03/21 06:00:08;;;;;;;11.93;8.70;;;;;;;6.26;67.37;99615.63;5118225;28;20444;-80
2021/03/21 06:03:01;;;;;;;11.37;8.87;;;;;;;6.28;67.38;99616.28;5118096;28;20027;-79
2021/03/21 06:05:39;;;;;;;10.43;8.57;;;;;;;6.25;67.10;99625.28;5118084;28;20341;-81
2021/03/21 06:08:55;;;;;;;13.10;9.07;;;;;;;6.25;67.40;99613.97;5118062;28;20015;-76
2021/03/21 06:11:39;;;;;;;13.73;10.80;;;;;;;6.27;67.13;99617.25;5118042;28;20492;-80
2021/03/21 06:14:17;;;;;;;14.43;11.63;;;;;;;6.26;67.50;99615.63;5118114;28;20095;-82
2021/03/21 06:16:52;;;;;;;20.30;14.23;;;;;;;6.19;67.12;99607.53;5099718;28;20038;-80
2021/03/21 06:19:55;;;;;;;20.03;15.23;;;;;;;6.23;67.53;99619.38;5116855;28;20341;-81
2021/03/21 06:22:41;;;;;;;21.00;15.87;;;;;;;5.87;67.43;99559.94;5117912;28;20050;-81
2021/03/21 06:25:31;;;;;;;18.80;14.20;;;;;;;6.24;67.32;99625.44;5117847;28;20030;-80
2021/03/21 06:28:31;;;;;;;20.90;15.80;;;;;;;6.22;67.11;99630.81;5099213;28;20082;-80
2021/03/21 06:31:05;;;;;;;19.73;15.37;;;;;;;6.19;67.26;99628.50;5099520;28;20023;-81
2021/03/21 06:33:44;;;;;;;19.13;14.40;;;;;;;5.50;67.87;99516.31;5099512;28;20070;-81
2021/03/21 06:36:27;;;;;;;17.27;14.10;;;;;;;6.28;67.64;99638.09;5117642;28;20027;-81
2021/03/21 06:39:14;;;;;;;18.53;13.90;;;;;;;6.28;67.15;99635.47;5117571;28;20024;-82
2021/03/21 06:41:57;;;;;;;19.87;15.73;;;;;;;6.33;67.61;99638.47;5116264;28;20024;-82
2021/03/21 06:44:50;;;;;;;18.17;13.80;;;;;;;6.36;67.44;99642.59;5117076;28;20031;-81
2021/03/21 06:47:43;;;;;;;15.80;13.15;;;;;;;6.36;67.15;99640.81;5117143;28;20103;-81
2021/03/21 06:50:29;;;;;;;16.73;12.80;;;;;;;6.35;67.15;99651.44;5117396;28;20057;-81
2021/03/21 06:53:03;;;;;;;18.57;14.03;;;;;;;6.34;67.07;99655.84;5085268;28;20058;-79
2021/03/21 06:55:41;;;;;;;15.90;12.47;;;;;;;5.80;67.14;99561.50;5122973;28;20023;-76
2021/03/21 06:58:27;;;;;;;15.10;11.13;;;;;;;6.33;66.78;99648.13;5123923;28;20035;-76
2021/03/21 07:01:25;;;;;;;15.90;11.70;;;;;;;5.88;67.20;99585.19;5117092;28;20029;-81
2021/03/21 07:04:17;;;;;;;14.50;11.37;;;;;;;6.35;66.99;99662.75;5102813;28;20054;-76
2021/03/21 07:07:20;;;;;;;15.67;13.17;;;;;;;6.34;67.09;99645.38;5098779;28;20032;-76
2021/03/21 07:10:07;;;;;;;17.87;13.37;;;;;;;6.33;67.26;99633.22;5116655;28;20034;-78
2021/03/21 07:13:07;;;;;;;16.93;12.90;;;;;;;6.36;67.22;99639.97;5098627;28;20031;-79
2021/03/21 07:15:59;;;;;;;19.77;14.17;;;;;;;6.32;66.95;99636.81;5116711;28;20100;-77
2021/03/21 07:18:43;;;;;;;17.27;14.03;;;;;;;6.34;66.99;99620.94;5116611;28;20031;-80
2021/03/21 07:21:46;;;;;;;18.10;13.27;;;;;;;6.35;66.86;99623.41;5115454;28;20019;-79
2021/03/21 07:24:52;;;;;;;14.57;12.63;;;;;;;6.36;67.32;99619.81;5116495;28;20054;-76
2021/03/21 07:27:36;;;;;;;15.80;11.60;;;;;;;6.38;66.67;99623.13;5115335;28;20119;-78
2021/03/21 07:30:19;;;;;;;14.37;11.17;;;;;;;6.40;66.86;99624.75;5098214;28;20120;-77
2021/03/21 07:33:02;;;;;;;14.07;11.50;;;;;;;6.41;67.16;99621.16;5116170;28;20027;-80
2021/03/21 07:35:46;;;;;;;16.30;11.53;;;;;;;6.44;66.61;99633.97;5116341;28;20035;-78
2021/03/21 07:38:30;;;;;;;15.27;11.40;;;;;;;6.45;66.59;99630.38;5098173;28;20031;-78
2021/03/21 07:41:28;;;;;;;10.83;8.63;;;;;;;6.51;66.42;99633.25;5097982;28;20031;-77
2021/03/21 07:44:34;;;;;;;11.27;9.17;;;;;;;6.49;66.49;99639.59;5088131;28;20434;-80
2021/03/21 07:47:26;;;;;;;8.80;7.17;;;;;;;6.30;66.58;99614.34;5098061;28;20019;-78
2021/03/21 07:50:10;;;;;;;9.40;8.32;;;;;;;6.38;66.45;99641.47;5097918;28;20027;-80
2021/03/21 07:52:56;;;;;;;9.43;7.97;;;;;;;6.40;66.63;99641.31;5116076;28;20027;-79
2021/03/21 07:55:41;;;;;;;7.77;6.83;;;;;;;6.35;66.28;99633.06;5098192;28;20039;-80
2021/03/21 07:58:21;;;;;;;9.57;7.23;;;;;;;6.04;66.69;99585.41;5115585;28;20019;-81
2021/03/21 08:00:47;;;;;;;11.77;8.50;;;;;;;6.40;66.23;99632.63;5116189;28;20020;-82
2021/03/21 08:03:20;;;;;;;12.83;10.33;;;;;;;6.48;66.55;99640.56;5103867;28;20448;-78
2021/03/21 08:05:49;;;;;;;14.60;10.90;;;;;;;6.27;66.35;99615.47;5101483;28;20065;-80
2021/03/21 08:08:20;;;;;;;10.77;8.80;;;;;;;6.56;66.36;99645.91;5115304;28;20452;-80
2021/03/21 08:10:51;;;;;;;9.07;7.93;;;;;;;5.72;66.68;99517.72;5115766;28;20019;-81
2021/03/21 08:13:35;;;;;;;10.90;8.93;;;;;;;5.85;66.64;99548.78;5116067;28;20333;-80
2021/03/21 08:16:01;;;;;;;11.33;8.90;;;;;;;6.26;66.57;99626.94;5115649;28;20336;-81
2021/03/21 08:18:35;;;;;;;13.33;10.00;;;;;;;6.50;67.13;99639.47;5097658;28;20030;-76
2021/03/21 08:21:07;;;;;;;15.60;12.03;;;;;;;6.53;66.18;99649.66;5097531;28;20132;-81
2021/03/21 08:23:37;;;;;;;;;;;;;;;6.42;67.04;99641.19;5116141;28;20015;-79
2021/03/21 08:26:13;;;;;;;20.50;15.57;;;;;;;6.38;66.56;99624.91;5115520;28;19985;-80
2021/03/21 08:29:00;;;;;;;20.03;13.20;;;;;;;6.54;67.40;99635.56;5115630;28;20035;-81
2021/03/21 08:31:33;;;;;;;15.80;12.60;;;;;;;5.95;66.99;99524.22;5115607;28;20019;-79
2021/03/21 08:34:24;;;;;;;12.67;10.03;;;;;;;6.64;66.34;99627.63;5121256;22;20043;-80
2021/03/21 08:36:50;;;;;;;15.03;11.27;;;;;;;6.61;66.60;99620.88;5086787;28;20049;-81
2021/03/21 08:39:25;;;;;;;17.83;13.00;;;;;;;6.34;66.48;99574.56;5097335;28;20118;-80
2021/03/21 08:41:54;;;;;;;18.73;14.07;;;;;;;6.52;66.75;99608.66;5115314;28;20023;-82
2021/03/21 08:44:47;;;;;;;20.40;15.63;;;;;;;6.65;67.07;99632.72;5115162;28;20020;-81
2021/03/21 08:47:21;;;;;;;17.90;14.50;;;;;;;6.68;67.13;99629.78;5115265;28;20023;-81
2021/03/21 08:49:51;;;;;;;17.50;13.53;;;;;;;6.18;66.48;99524.59;5115246;28;20024;-82
2021/03/21 08:52:42;;;;;;;16.33;13.25;;;;;;;6.70;66.75;99624.41;5096164;28;20434;-83
2021/03/21 08:55:30;;;;;;;16.63;12.88;;;;;;;6.72;66.69;99611.16;5095194;28;20008;-80
2021/03/21 08:57:55;;;;;;;17.33;13.20;;;;;;;6.46;66.54;99550.72;5076978;28;20345;-80
2021/03/21 09:00:26;;;;;;;19.60;14.90;;;;;;;6.79;66.61;99596.44;5094890;28;20095;-80
2021/03/21 09:02:52;;;;;;;18.53;14.40;;;;;;;6.32;67.13;99525.88;5076795;28;20051;-83
2021/03/21 09:05:21;;;;;;;15.07;12.00;;;;;;;6.85;66.49;99606.31;5094831;28;20290;-81
2021/03/21 09:07:50;;;;;;;12.63;9.77;;;;;;;6.93;66.44;99603.75;5094793;28;20103;-81
2021/03/21 09:10:26;;;;;;;10.80;8.70;;;;;;;6.95;66.15;99602.63;5104997;28;20016;-79
2021/03/21 09:13:14;;;;;;;9.30;7.82;;;;;;;6.12;65.94;99464.09;5100553;28;20487;-80
2021/03/21 09:15:41;;;;;;;10.10;8.50;;;;;;;6.51;66.06;99530.13;5098815;28;20032;-81
2021/03/21 09:18:16;;;;;;;13.13;10.47;;;;;;;6.94;66.17;99590.47;5098882;28;20036;-85
2021/03/21 09:20:56;;;;;;;17.50;12.67;;;;;;;6.36;66.94;99496.56;5098774;28;20418;-81
2021/03/21 09:23:37;;;;;;;14.17;10.17;;;;;;;6.96;66.47;99587.72;5098832;28;20035;-81
2021/03/21 09:26:09;;;;;;;9.35;7.72;;;;;;;6.72;66.54;99537.69;5080539;28;20434;-82
2021/03/21 09:28:35;;;;;;;8.13;6.60;;;;;;;7.04;66.36;99574.63;5098368;28;20366;-79
2021/03/21 09:31:05;;;;;;;6.60;5.90;;;;;;;6.91;65.88;99545.34;5080314;28;20435;-79
2021/03/21 09:33:48;;;;;;;7.25;6.45;;;;;;;7.05;66.17;99570.22;5098206;28;20036;-76
2021/03/21 09:36:23;;;;;;;10.25;7.30;;;;;;;6.98;65.77;99568.19;5098373;28;20059;-76
2021/03/21 09:38:56;;;;;;;6.30;5.47;;;;;;;6.95;65.97;99555.38;5098117;28;20024;-76
2021/03/21 09:41:23;;;;;;;7.47;6.25;;;;;;;7.08;66.38;99557.59;5098419;28;20453;-76
2021/03/21 09:43:49;;;;;;;7.05;6.35;;;;;;;7.13;65.91;99562.38;5098044;28;20035;-78
2021/03/21 09:46:30;;;;;;;6.75;5.57;;;;;;;7.16;66.65;99548.94;5098075;28;20024;-76
2021/03/21 09:49:13;;;;;;;5.70;5.05;;;;;;;6.89;65.95;99490.38;5097924;28;20151;-77
2021/03/21 09:51:51;;;;;;;7.20;6.03;;;;;;;7.19;65.92;99519.75;5079840;28;20031;-78
2021/03/21 09:54:32;;;;;;;7.07;5.43;;;;;;;7.14;65.77;99517.59;5097808;28;20066;-79
2021/03/21 09:57:35;;;;;;;6.57;5.57;;;;;;;7.14;65.87;99517.59;5097719;28;20083;-79
2021/03/21 10:00:11;;;;;;;8.63;7.45;;;;;;;7.01;65.68;99511.94;5079598;28;20024;-78
2021/03/21 10:02:47;;;;;;;5.93;4.93;;;;;;;7.09;65.73;99521.66;5097961;28;20027;-79
2021/03/21 10:05:44;;;;;;;14.30;11.05;;;;;;;6.30;66.31;99386.25;5079669;28;20016;-79
2021/03/21 10:08:48;;;;;;;14.15;11.93;;;;;;;7.05;67.04;99518.53;5097182;28;20056;-79
2021/03/21 10:11:30;;;;;;;9.68;8.07;;;;;;;7.09;66.21;99530.38;5097730;28;20080;-80
2021/03/21 10:13:56;;;;;;;7.13;5.50;;;;;;;7.12;66.44;99529.22;5097515;28;20046;-81
2021/03/21 10:16:24;;;;;;;5.82;5.22;;;;;;;7.18;66.18;99528.59;5098645;28;20437;-80
2021/03/21 10:18:56;;;;;;;8.50;5.90;;;;;;;6.75;65.70;99462.09;5103783;28;20471;-79
2021/03/21 10:21:21;;;;;;;5.20;4.25;;;;;;;7.17;65.79;99530.41;5098804;28;20327;-79
2021/03/21 10:24:00;;;;;;;6.45;4.88;;;;;;;7.18;65.97;99534.69;5079684;28;20024;-78
2021/03/21 10:26:31;;;;;;;10.35;6.18;;;;;;;7.23;65.87;99536.84;5079503;28;20338;-80
2021/03/21 10:29:22;;;;;;;5.82;4.47;;;;;;;7.20;65.94;99532.72;5079314;28;20070;-80
2021/03/21 10:31:48;;;;;;;7.10;5.45;;;;;;;7.19;65.37;99517.13;5097153;28;20031;-80
2021/03/21 10:34:13;;;;;;;4.90;4.40;;;;;;;7.24;65.58;99526.16;5096984;28;20048;-81
2021/03/21 10:36:42;;;;;;;5.93;4.72;;;;;;;7.21;65.32;99515.97;5097126;28;20031;-80
2021/03/21 10:39:24;;;;;;;5.00;4.55;;;;;;;7.24;65.65;99515.66;5079137;28;20434;-79
2021/03/21 10:41:54;;;;;;;5.13;4.63;;;;;;;7.26;64.85;99518.13;5097087;28;20146;-80
2021/03/21 10:44:30;;;;;;;5.93;4.78;;;;;;;7.22;64.96;99515.00;5079151;28;20026;-80
2021/03/21 10:46:56;;;;;;;4.57;4.15;;;;;;;7.07;65.18;99500.81;5078920;28;20036;-79
2021/03/21 10:49:49;;;;;;;7.00;4.80;;;;;;;7.16;65.39;99513.00;5097105;28;20373;-80
2021/03/21 10:52:53;;;;;;;4.93;4.20;;;;;;;7.13;65.78;99515.94;5078865;28;20434;-81
2021/03/21 10:55:21;;;;;;;5.22;4.10;;;;;;;7.12;65.19;99506.41;5073131;28;20031;-81
2021/03/21 10:57:49;;;;;;;5.10;4.43;;;;;;;7.12;65.45;99497.72;5096971;28;20077;-81
2021/03/21 11:00:31;;;;;;;4.68;4.13;;;;;;;7.14;64.91;99498.38;5078846;28;20063;-81
2021/03/21 11:03:05;;;;;;;9.80;8.00;;;;;;;7.15;65.51;99507.91;5096647;28;20016;-81
2021/03/21 11:05:33;;;;;;;8.57;5.70;;;;;;;7.17;65.32;99501.53;5097187;28;20322;-81
2021/03/21 11:08:17;;;;;;;7.57;5.78;;;;;;;7.14;65.18;99491.34;5078829;28;20042;-81
2021/03/21 11:10:47;;;;;;;7.68;5.88;;;;;;;7.17;65.33;99477.06;5096607;28;20047;-80
2021/03/21 11:13:24;;;;;;;8.90;6.88;;;;;;;6.93;65.40;99423.47;5096498;28;20020;-82
2021/03/21 11:15:50;;;;;;;6.10;5.50;;;;;;;6.71;64.70;99389.94;5096367;28;20031;-82
2021/03/21 11:18:25;;;;;;;9.15;6.75;;;;;;;7.26;65.17;99463.00;5096346;28;20028;-80
2021/03/21 11:21:08;;;;;;;9.17;7.23;;;;;;;7.26;65.36;99460.38;5096391;28;20016;-80
2021/03/21 11:23:44;;;;;;;10.27;8.02;;;;;;;7.20;65.42;99451.31;5100214;28;20024;-78
2021/03/21 11:26:22;;;;;;;8.57;6.97;;;;;;;7.20;65.26;99447.88;5083785;28;20031;-80
2021/03/21 11:28:47;;;;;;;8.90;7.55;;;;;;;6.55;64.90;99345.22;5096563;28;20058;-82
2021/03/21 11:31:32;;;;;;;10.02;7.93;;;;;;;7.23;64.98;99435.25;5078043;28;20024;-81
2021/03/21 11:33:57;;;;;;;11.20;8.97;;;;;;;7.30;65.47;99438.06;5078095;28;20055;-82
2021/03/21 11:36:26;;;;;;;12.40;9.50;;;;;;;7.31;64.86;99426.56;5095862;28;20032;-81
2021/03/21 11:38:52;;;;;;;13.80;10.43;;;;;;;6.77;65.21;99342.06;5095835;28;20023;-83
2021/03/21 11:41:29;;;;;;;15.38;12.25;;;;;;;7.30;65.14;99424.94;5095981;28;20020;-84
2021/03/21 11:44:32;;;;;;;15.15;11.60;;;;;;;7.32;65.00;99420.34;5095926;28;20035;-81
2021/03/21 11:47:33;;;;;;;11.63;10.13;;;;;;;6.80;65.23;99333.88;5095661;28;20028;-81
2021/03/21 11:49:59;;;;;;;13.43;10.68;;;;;;;7.21;65.58;99416.19;5033766;28;20536;-81
2021/03/21 11:52:26;;;;;;;14.23;10.57;;;;;;;7.24;65.29;99412.44;5065545;28;20460;-85
2021/03/21 11:54:53;;;;;;;11.07;9.00;;;;;;;7.32;65.63;99415.91;5095526;28;20020;-83
2021/03/21 11:57:25;;;;;;;10.43;9.15;;;;;;;7.39;65.56;99404.75;5095550;28;20047;-83
2021/03/21 11:59:57;;;;;;;11.70;8.90;;;;;;;6.96;65.61;99348.84;5077491;28;20111;-82
2021/03/21 12:02:45;;;;;;;10.07;9.02;;;;;;;7.48;65.13;99402.00;5095707;28;20063;-82
2021/03/21 12:05:18;;;;;;;15.63;10.50;;;;;;;7.29;64.99;99362.88;5087520;28;20046;-77
2021/03/21 12:07:44;;;;;;;14.18;10.77;;;;;;;7.46;65.38;99382.16;5094442;28;20024;-78
2021/03/21 12:10:27;;;;;;;13.88;11.93;;;;;;;7.49;64.56;99384.44;5094267;28;20038;-79
2021/03/21 12:12:52;;;;;;;15.73;12.93;;;;;;;7.48;64.75;99380.19;5077249;28;20012;-80
2021/03/21 12:15:24;;;;;;;18.85;14.52;;;;;;;7.52;64.87;99371.00;5077469;28;20111;-77
2021/03/21 12:18:03;;;;;;;18.33;14.05;;;;;;;7.51;65.28;99375.41;5077121;28;20024;-76